createdAt,value
2023-05-21T00:01:16.098Z,101811.44
2023-05-21T00:04:03.549Z,101811.36
2023-05-21T00:06:51.584Z,101810.44
2023-05-21T00:09:38.994Z,101809.42
2023-05-21T00:12:26.053Z,101807.80
2023-05-21T00:15:12.949Z,101803.35
2023-05-21T00:17:59.713Z,101797.08
2023-05-21T00:20:46.121Z,101804.44
2023-05-21T00:23:33.172Z,101806.17
2023-05-21T00:26:21.659Z,101813.52
2023-05-21T00:29:09.154Z,101803.34
2023-05-21T00:31:56.156Z,101805.06
2023-05-21T00:34:42.697Z,101804.77
2023-05-21T00:37:34.240Z,101802.56
2023-05-21T00:40:21.457Z,101803.34
2023-05-21T00:43:10.801Z,101802.39
2023-05-21T00:45:58.365Z,101797.53
2023-05-21T00:48:46.881Z,101795.66
2023-05-21T00:51:33.365Z,101793.44
2023-05-21T00:54:19.774Z,101792.68
2023-05-21T00:57:06.746Z,101792.48
2023-05-21T00:59:53.985Z,101792.48
2023-05-21T01:02:40.516Z,101793.04
2023-05-21T01:05:29.038Z,101796.19
2023-05-21T01:08:15.944Z,101791.13
2023-05-21T01:11:04.768Z,101789.27
2023-05-21T01:13:51.341Z,101789.41
2023-05-21T01:16:39.946Z,101786.98
2023-05-21T01:19:26.772Z,101786.45
2023-05-21T01:22:14.424Z,101787.68
2023-05-21T01:25:02.973Z,101790.48
2023-05-21T01:27:50.672Z,101783.44
2023-05-21T01:30:38.083Z,101779.75
2023-05-21T01:33:49.855Z,101787.09
2023-05-21T01:36:42.264Z,101784.66
2023-05-21T01:39:36.872Z,101785.83
2023-05-21T01:42:24.807Z,101781.42
2023-05-21T01:45:12.421Z,101782.55
2023-05-21T01:47:59.364Z,101782.32
2023-05-21T01:50:47.258Z,101780.63
2023-05-21T01:53:33.758Z,101780.66
2023-05-21T01:56:23.265Z,101776.65
2023-05-21T01:59:10.415Z,101777.05
2023-05-21T02:01:56.853Z,101773.16
2023-05-21T02:04:44.269Z,101771.83
2023-05-21T02:07:33.855Z,101775.42
2023-05-21T02:10:21.136Z,101771.85
2023-05-21T02:13:07.501Z,101771.83
2023-05-21T02:15:55.119Z,101766.73
2023-05-21T02:18:43.689Z,101767.63
2023-05-21T02:21:31.259Z,101769.36
2023-05-21T02:24:17.877Z,101770.12
2023-05-21T02:27:06.385Z,101763.20
2023-05-21T02:29:52.977Z,101769.88
2023-05-21T02:32:42.830Z,101764.68
2023-05-21T02:35:29.623Z,101778.35
2023-05-21T02:38:19.519Z,101777.95
2023-05-21T02:41:07.032Z,101775.02
2023-05-21T02:43:53.575Z,101776.16
2023-05-21T02:46:40.957Z,101773.91
2023-05-21T02:49:27.825Z,101772.70
2023-05-21T02:52:14.753Z,101776.10
2023-05-21T02:55:01.356Z,101773.66
2023-05-21T02:57:47.947Z,101774.36
2023-05-21T03:00:34.485Z,101774.02
2023-05-21T03:03:21.177Z,101768.58
2023-05-21T03:06:10.256Z,101761.39
2023-05-21T03:08:56.926Z,101763.77
2023-05-21T03:11:44.053Z,101767.66
2023-05-21T03:14:30.434Z,101762.30
2023-05-21T03:17:19.078Z,101759.81
2023-05-21T03:20:16.047Z,101757.23
2023-05-21T03:23:04.541Z,101750.95
2023-05-21T03:25:51.556Z,101752.27
2023-05-21T03:28:38.453Z,101751.14
2023-05-21T03:31:26.094Z,101755.17
2023-05-21T03:34:38.802Z,101759.40
2023-05-21T03:37:26.191Z,101746.98
2023-05-21T03:40:13.710Z,101754.31
2023-05-21T03:43:01.549Z,101752.98
2023-05-21T03:45:48.145Z,101752.02
2023-05-21T03:49:14.558Z,101760.58
2023-05-21T03:52:01.543Z,101760.08
2023-05-21T03:54:48.248Z,101761.29
2023-05-21T03:57:35.090Z,101754.77
2023-05-21T04:00:21.848Z,101759.60
2023-05-21T04:03:09.726Z,101761.29
2023-05-21T04:05:56.776Z,101762.30
2023-05-21T04:08:44.660Z,101762.29
2023-05-21T04:11:31.556Z,101765.20
2023-05-21T04:14:18.521Z,101760.60
2023-05-21T04:17:05.903Z,101759.94
2023-05-21T04:19:52.521Z,101763.84
2023-05-21T04:22:40.323Z,101763.45
2023-05-21T04:25:27.576Z,101759.10
2023-05-21T04:28:14.118Z,101761.61
2023-05-21T04:31:01.573Z,101760.88
2023-05-21T04:33:48.570Z,101761.54
2023-05-21T04:36:35.133Z,101763.16
2023-05-21T04:39:21.927Z,101760.81
2023-05-21T04:42:11.223Z,101756.38
2023-05-21T04:44:59.646Z,101761.48
2023-05-21T04:47:48.017Z,101761.70
2023-05-21T04:50:35.338Z,101760.64
2023-05-21T04:53:23.564Z,101760.15
2023-05-21T04:56:10.174Z,101753.30
2023-05-21T04:58:58.821Z,101754.38
2023-05-21T05:01:46.221Z,101755.55
2023-05-21T05:04:32.771Z,101753.90
2023-05-21T05:07:19.387Z,101749.01
2023-05-21T05:10:09.298Z,101753.10
2023-05-21T05:12:56.293Z,101759.36
2023-05-21T05:15:42.781Z,101760.04
2023-05-21T05:18:29.741Z,101761.23
2023-05-21T05:21:16.678Z,101757.84
2023-05-21T05:24:03.494Z,101762.48
2023-05-21T05:26:52.505Z,101760.30
2023-05-21T05:29:39.197Z,101762.67
2023-05-21T05:32:25.801Z,101760.59
2023-05-21T05:35:12.859Z,101760.71
2023-05-21T05:37:59.653Z,101753.05
2023-05-21T05:40:46.280Z,101756.85
2023-05-21T05:43:36.028Z,101756.09
2023-05-21T05:46:23.705Z,101752.58
2023-05-21T05:49:11.242Z,101754.03
2023-05-21T05:51:59.446Z,101755.05
2023-05-21T05:54:46.105Z,101752.13
2023-05-21T05:57:32.734Z,101750.08
2023-05-21T06:00:21.344Z,101749.91
2023-05-21T06:03:09.169Z,101746.35
2023-05-21T06:05:55.785Z,101747.42
2023-05-21T06:08:42.492Z,101746.82
2023-05-21T06:11:29.307Z,101746.52
2023-05-21T06:14:16.082Z,101745.84
2023-05-21T06:17:02.989Z,101748.05
2023-05-21T06:19:50.229Z,101746.40
2023-05-21T06:22:37.344Z,101744.02
2023-05-21T06:25:25.920Z,101745.41
2023-05-21T06:28:12.873Z,101743.70
2023-05-21T06:30:59.538Z,101743.64
2023-05-21T06:33:46.228Z,101744.62
2023-05-21T06:36:33.030Z,101742.02
2023-05-21T06:39:20.158Z,101748.73
2023-05-21T06:42:06.774Z,101751.03
2023-05-21T06:45:04.681Z,101745.43
2023-05-21T06:47:56.820Z,101744.83
2023-05-21T06:50:44.235Z,101747.29
2023-05-21T06:53:31.229Z,101744.69
2023-05-21T06:56:18.193Z,101739.79
2023-05-21T06:59:06.208Z,101733.83
2023-05-21T07:01:53.580Z,101737.80
2023-05-21T07:04:41.003Z,101738.90
2023-05-21T07:07:27.551Z,101735.46
2023-05-21T07:10:14.463Z,101735.28
2023-05-21T07:13:01.809Z,101731.65
2023-05-21T07:15:48.709Z,101733.06
2023-05-21T07:18:35.557Z,101731.77
2023-05-21T07:21:22.257Z,101735.17
2023-05-21T07:24:10.138Z,101736.01
2023-05-21T07:26:59.011Z,101736.30
2023-05-21T07:29:46.892Z,101732.66
2023-05-21T07:32:34.675Z,101730.43
2023-05-21T07:35:21.543Z,101729.10
2023-05-21T07:38:08.454Z,101725.52
2023-05-21T07:40:56.886Z,101724.99
2023-05-21T07:43:43.676Z,101722.20
2023-05-21T07:46:30.965Z,101723.50
2023-05-21T07:49:17.941Z,101720.35
2023-05-21T07:52:05.951Z,101718.50
2023-05-21T07:54:53.017Z,101716.94
2023-05-21T07:57:42.169Z,101710.65
2023-05-21T08:00:42.987Z,101712.70
2023-05-21T08:03:31.087Z,101717.83
2023-05-21T08:06:18.485Z,101712.83
2023-05-21T08:09:06.437Z,101715.58
2023-05-21T08:11:53.209Z,101718.84
2023-05-21T08:14:40.225Z,101721.56
2023-05-21T08:17:28.818Z,101719.77
2023-05-21T08:20:15.477Z,101720.31
2023-05-21T08:23:04.348Z,101717.96
2023-05-21T08:25:57.112Z,101712.88
2023-05-21T08:28:44.346Z,101712.50
2023-05-21T08:31:31.993Z,101711.95
2023-05-21T08:34:19.083Z,101707.77
2023-05-21T08:37:12.230Z,101706.84
2023-05-21T08:40:21.093Z,101704.44
2023-05-21T08:43:07.528Z,101704.40
2023-05-21T08:46:04.768Z,101706.52
2023-05-21T08:48:55.817Z,101700.46
2023-05-21T08:51:42.819Z,101701.36
2023-05-21T08:54:30.875Z,101696.42
2023-05-21T08:57:20.270Z,101698.23
2023-05-21T09:00:08.213Z,101702.02
2023-05-21T09:02:56.348Z,101698.39
2023-05-21T09:05:46.132Z,101696.00
2023-05-21T09:08:35.894Z,101693.42
2023-05-21T09:11:27.213Z,101692.54
2023-05-21T09:14:17.528Z,101690.51
2023-05-21T09:17:16.394Z,101691.05
2023-05-21T09:20:18.871Z,101687.74
2023-05-21T09:23:16.970Z,101688.54
2023-05-21T09:26:12.359Z,101689.52
2023-05-21T09:29:00.738Z,101688.02
2023-05-21T09:31:47.353Z,101687.83
2023-05-21T09:34:36.325Z,101677.95
2023-05-21T09:37:27.456Z,101681.90
2023-05-21T09:40:16.380Z,101680.39
2023-05-21T09:43:05.181Z,101672.67
2023-05-21T09:45:56.620Z,101675.00
2023-05-21T09:48:46.431Z,101679.64
2023-05-21T09:51:39.049Z,101681.48
2023-05-21T09:54:31.161Z,101674.96
2023-05-21T09:57:23.810Z,101679.95
2023-05-21T10:00:19.158Z,101684.79
2023-05-21T10:03:12.395Z,101672.64
2023-05-21T10:06:00.977Z,101681.46
2023-05-21T10:08:53.368Z,101680.48
2023-05-21T10:11:42.100Z,101679.39
2023-05-21T10:14:32.315Z,101673.09
2023-05-21T10:17:19.759Z,101668.59
2023-05-21T10:20:10.776Z,101673.06
2023-05-21T10:22:58.984Z,101669.07
2023-05-21T10:25:46.234Z,101665.09
2023-05-21T10:28:34.121Z,101672.80
2023-05-21T10:31:21.317Z,101667.52
2023-05-21T10:34:08.726Z,101665.36
2023-05-21T10:36:57.509Z,101661.65
2023-05-21T10:39:46.044Z,101659.04
2023-05-21T10:42:32.599Z,101660.82
2023-05-21T10:45:48.602Z,101657.02
2023-05-21T10:49:26.905Z,101648.64
2023-05-21T10:52:25.176Z,101649.40
2023-05-21T10:55:23.650Z,101641.20
2023-05-21T10:58:23.951Z,101631.67
2023-05-21T11:01:12.841Z,101637.67
2023-05-21T11:04:00.001Z,101640.16
2023-05-21T11:06:50.852Z,101629.48
2023-05-21T11:09:38.610Z,101622.67
2023-05-21T11:12:26.403Z,101622.95
2023-05-21T11:15:16.433Z,101626.74
2023-05-21T11:18:03.062Z,101624.88
2023-05-21T11:20:52.671Z,101626.55
2023-05-21T11:23:51.628Z,101622.94
2023-05-21T11:26:50.441Z,101621.29
2023-05-21T11:29:45.152Z,101616.02
2023-05-21T11:32:32.123Z,101619.58
2023-05-21T11:35:22.501Z,101623.98
2023-05-21T11:38:09.344Z,101621.15
2023-05-21T11:41:03.201Z,101624.13
2023-05-21T11:44:01.330Z,101628.94
2023-05-21T11:46:48.721Z,101623.89
2023-05-21T11:49:36.459Z,101625.45
2023-05-21T11:52:23.864Z,101625.74
2023-05-21T11:55:11.510Z,101628.88
2023-05-21T11:57:59.047Z,101624.20
2023-05-21T12:00:45.791Z,101620.27
2023-05-21T12:03:35.329Z,101615.98
2023-05-21T12:06:26.575Z,101618.97
2023-05-21T12:09:13.968Z,101619.49
2023-05-21T12:12:01.730Z,101617.42
2023-05-21T12:14:50.989Z,101621.14
2023-05-21T12:17:39.300Z,101619.20
2023-05-21T12:20:28.442Z,101621.30
2023-05-21T12:23:25.569Z,101617.86
2023-05-21T12:26:12.577Z,101619.50
2023-05-21T12:28:59.480Z,101621.84
2023-05-21T12:31:50.692Z,101624.29
2023-05-21T12:34:44.941Z,101616.02
2023-05-21T12:37:32.590Z,101615.39
2023-05-21T12:40:20.253Z,101616.73
2023-05-21T12:43:07.469Z,101614.76
2023-05-21T12:45:54.180Z,101619.19
2023-05-21T12:48:42.832Z,101610.02
2023-05-21T12:51:39.220Z,101604.94
2023-05-21T12:54:31.984Z,101608.01
2023-05-21T12:57:21.365Z,101600.20
2023-05-21T13:00:09.026Z,101595.89
2023-05-21T13:02:59.823Z,101590.17
2023-05-21T13:05:46.891Z,101592.33
2023-05-21T13:08:35.951Z,101583.36
2023-05-21T13:11:22.387Z,101584.84
2023-05-21T13:14:08.872Z,101580.52
2023-05-21T13:16:55.504Z,101580.35
2023-05-21T13:19:42.265Z,101581.17
2023-05-21T13:22:29.290Z,101576.54
2023-05-21T13:25:21.339Z,101576.20
2023-05-21T13:28:10.373Z,101564.56
2023-05-21T13:30:56.874Z,101560.48
2023-05-21T13:33:43.524Z,101559.63
2023-05-21T13:36:31.346Z,101559.22
2023-05-21T13:39:18.077Z,101553.83
2023-05-21T13:42:05.853Z,101558.92
2023-05-21T13:44:52.956Z,101554.08
2023-05-21T13:47:40.829Z,101546.67
2023-05-21T13:50:27.370Z,101539.69
2023-05-21T13:53:13.702Z,101536.89
2023-05-21T13:56:00.471Z,101533.20
2023-05-21T13:58:47.059Z,101531.59
2023-05-21T14:01:33.830Z,101536.04
2023-05-21T14:04:21.225Z,101537.83
2023-05-21T14:07:07.558Z,101536.90
2023-05-21T14:09:53.987Z,101535.65
2023-05-21T14:12:41.140Z,101527.86
2023-05-21T14:15:27.878Z,101528.34
2023-05-21T14:18:14.582Z,101525.20
2023-05-21T14:21:02.157Z,101520.56
2023-05-21T14:23:49.419Z,101522.62
2023-05-21T14:26:39.940Z,101524.04
2023-05-21T14:29:26.424Z,101516.73
2023-05-21T14:32:13.314Z,101514.83
2023-05-21T14:35:00.037Z,101513.83
2023-05-21T14:37:46.802Z,101512.59
2023-05-21T14:40:33.565Z,101509.23
2023-05-21T14:43:20.342Z,101513.91
2023-05-21T14:46:06.997Z,101510.82
2023-05-21T14:48:55.515Z,101502.92
2023-05-21T14:51:43.721Z,101503.04
2023-05-21T14:54:30.412Z,101506.62
2023-05-21T14:57:17.167Z,101507.08
2023-05-21T15:00:04.273Z,101499.46
2023-05-21T15:02:51.053Z,101502.33
2023-05-21T15:05:37.785Z,101498.33
2023-05-21T15:08:24.777Z,101498.98
2023-05-21T15:11:11.678Z,101500.30
2023-05-21T15:13:58.061Z,101503.30
2023-05-21T15:16:44.859Z,101502.00
2023-05-21T15:19:31.729Z,101498.17
2023-05-21T15:22:18.580Z,101500.20
2023-05-21T15:25:06.745Z,101481.42
2023-05-21T15:27:53.377Z,101497.45
2023-05-21T15:30:40.518Z,101495.61
2023-05-21T15:33:26.914Z,101494.46
2023-05-21T15:36:13.541Z,101497.92
2023-05-21T15:39:03.498Z,101495.48
2023-05-21T15:41:50.409Z,101493.58
2023-05-21T15:44:38.583Z,101495.27
2023-05-21T15:47:24.765Z,101487.41
2023-05-21T15:50:12.207Z,101488.23
2023-05-21T15:52:58.932Z,101487.51
2023-05-21T15:55:45.724Z,101484.41
2023-05-21T15:58:32.404Z,101487.48
2023-05-21T16:01:19.634Z,101484.50
2023-05-21T16:04:06.593Z,101479.88
2023-05-21T16:06:53.127Z,101484.14
2023-05-21T16:09:39.708Z,101484.67
2023-05-21T16:12:26.500Z,101484.39
2023-05-21T16:15:13.287Z,101485.15
2023-05-21T16:18:00.029Z,101486.23
2023-05-21T16:20:47.304Z,101488.76
2023-05-21T16:23:34.352Z,101482.77
2023-05-21T16:26:21.469Z,101482.26
2023-05-21T16:29:08.325Z,101480.09
2023-05-21T16:31:54.571Z,101478.14
2023-05-21T16:34:41.258Z,101473.63
2023-05-21T16:37:28.212Z,101479.21
2023-05-21T16:40:14.670Z,101475.21
2023-05-21T16:43:02.241Z,101473.95
2023-05-21T16:45:49.219Z,101470.52
2023-05-21T16:48:38.042Z,101467.07
2023-05-21T16:51:24.900Z,101470.92
2023-05-21T16:54:11.193Z,101473.83
2023-05-21T16:56:57.682Z,101472.29
2023-05-21T16:59:43.917Z,101475.58
2023-05-21T17:02:31.529Z,101472.13
2023-05-21T17:05:18.185Z,101462.75
2023-05-21T17:08:05.152Z,101467.27
2023-05-21T17:10:51.870Z,101466.94
2023-05-21T17:13:38.595Z,101470.41
2023-05-21T17:16:25.206Z,101468.91
2023-05-21T17:19:12.280Z,101458.44
2023-05-21T17:21:59.073Z,101468.70
2023-05-21T17:24:46.053Z,101463.96
2023-05-21T17:27:32.975Z,101463.34
2023-05-21T17:30:19.779Z,101469.38
2023-05-21T17:33:06.631Z,101465.89
2023-05-21T17:35:53.810Z,101472.59
2023-05-21T17:38:40.553Z,101470.27
2023-05-21T17:41:26.857Z,101469.77
2023-05-21T17:44:14.415Z,101466.41
2023-05-21T17:47:01.593Z,101466.73
2023-05-21T17:49:48.456Z,101460.25
2023-05-21T17:52:35.128Z,101455.41
2023-05-21T17:55:21.749Z,101451.73
2023-05-21T17:58:10.099Z,101457.84
2023-05-21T18:00:57.022Z,101456.92
2023-05-21T18:03:43.749Z,101463.73
2023-05-21T18:06:31.345Z,101456.59
2023-05-21T18:09:17.874Z,101446.77
2023-05-21T18:12:05.790Z,101463.75
2023-05-21T18:14:52.294Z,101465.67
2023-05-21T18:17:39.003Z,101464.45
2023-05-21T18:20:25.179Z,101461.33
2023-05-21T18:23:11.717Z,101462.89
2023-05-21T18:25:58.047Z,101464.92
2023-05-21T18:28:44.706Z,101467.45
2023-05-21T18:31:31.639Z,101470.14
2023-05-21T18:34:17.953Z,101466.98
2023-05-21T18:37:05.081Z,101466.90
2023-05-21T18:39:51.883Z,101461.73
2023-05-21T18:42:38.362Z,101463.20
2023-05-21T18:45:25.241Z,101464.51
2023-05-21T18:48:12.551Z,101468.14
2023-05-21T18:50:59.265Z,101464.80
2023-05-21T18:53:46.117Z,101473.63
2023-05-21T18:56:32.758Z,101465.06
2023-05-21T18:59:19.435Z,101466.30
2023-05-21T19:02:06.209Z,101472.78
2023-05-21T19:04:52.922Z,101478.88
2023-05-21T19:07:41.266Z,101476.13
2023-05-21T19:10:27.866Z,101472.77
2023-05-21T19:13:14.827Z,101485.33
2023-05-21T19:16:02.318Z,101484.27
2023-05-21T19:18:49.034Z,101485.58
2023-05-21T19:21:35.917Z,101492.63
2023-05-21T19:24:22.463Z,101491.05
2023-05-21T19:27:09.093Z,101496.10
2023-05-21T19:29:55.990Z,101498.45
2023-05-21T19:32:42.996Z,101497.30
2023-05-21T19:35:30.288Z,101498.73
2023-05-21T19:38:17.201Z,101499.29
2023-05-21T19:41:03.895Z,101505.63
2023-05-21T19:43:50.482Z,101507.59
2023-05-21T19:46:37.113Z,101504.29
2023-05-21T19:49:23.791Z,101504.27
2023-05-21T19:52:10.584Z,101507.03
2023-05-21T19:55:04.391Z,101505.84
2023-05-21T19:57:51.149Z,101507.66
2023-05-21T20:00:37.594Z,101503.05
2023-05-21T20:03:26.443Z,101504.52
2023-05-21T20:06:15.378Z,101499.20
2023-05-21T20:09:01.915Z,101499.98
2023-05-21T20:11:48.694Z,101501.91
2023-05-21T20:14:35.333Z,101500.52
2023-05-21T20:17:22.244Z,101497.65
2023-05-21T20:20:10.477Z,101496.52
2023-05-21T20:22:57.198Z,101495.18
2023-05-21T20:25:44.256Z,101495.10
2023-05-21T20:28:30.909Z,101495.54
2023-05-21T20:31:17.383Z,101494.33
2023-05-21T20:34:07.510Z,101493.11
2023-05-21T20:36:58.192Z,101493.62
2023-05-21T20:39:45.202Z,101491.45
2023-05-21T20:42:35.057Z,101493.63
2023-05-21T20:45:22.091Z,101497.25
2023-05-21T20:48:09.981Z,101502.85
2023-05-21T20:50:57.636Z,101504.39
2023-05-21T20:53:44.001Z,101505.26
2023-05-21T20:56:41.371Z,101504.16
2023-05-21T20:59:29.068Z,101503.77
2023-05-21T21:02:16.871Z,101511.55
2023-05-21T21:05:03.655Z,101510.77
2023-05-21T21:07:52.235Z,101509.63
2023-05-21T21:10:42.379Z,101508.39
2023-05-21T21:13:28.813Z,101509.89
2023-05-21T21:16:15.679Z,101507.81
2023-05-21T21:19:02.357Z,101504.71
2023-05-21T21:21:49.551Z,101506.41
2023-05-21T21:24:36.288Z,101508.74
2023-05-21T21:27:23.079Z,101507.70
2023-05-21T21:30:10.565Z,101502.21
2023-05-21T21:32:57.424Z,101504.03
2023-05-21T21:35:44.219Z,101507.63
2023-05-21T21:38:31.430Z,101508.59
2023-05-21T21:41:17.791Z,101507.56
2023-05-21T21:44:04.465Z,101506.23
2023-05-21T21:46:51.550Z,101503.14
2023-05-21T21:49:38.331Z,101499.89
2023-05-21T21:52:27.482Z,101493.95
2023-05-21T21:55:14.753Z,101500.02
2023-05-21T21:58:01.561Z,101499.70
2023-05-21T22:00:47.780Z,101497.39
2023-05-21T22:03:34.552Z,101498.96
2023-05-21T22:06:21.382Z,101500.13
2023-05-21T22:09:08.111Z,101500.77
2023-05-21T22:11:54.960Z,101504.58
2023-05-21T22:14:43.742Z,101496.81
2023-05-21T22:17:30.215Z,101500.27
2023-05-21T22:20:17.764Z,101501.56
2023-05-21T22:23:04.546Z,101502.06
2023-05-21T22:25:50.993Z,101500.70
2023-05-21T22:28:37.474Z,101499.98
2023-05-21T22:31:23.977Z,101503.88
2023-05-21T22:34:10.364Z,101503.92
2023-05-21T22:36:56.773Z,101503.84
2023-05-21T22:39:43.530Z,101499.67
2023-05-21T22:42:30.482Z,101498.33
2023-05-21T22:45:18.558Z,101503.11
2023-05-21T22:48:07.334Z,101502.46
2023-05-21T22:50:54.847Z,101501.30
2023-05-21T22:53:41.960Z,101501.28
2023-05-21T22:56:28.563Z,101500.43
2023-05-21T22:59:15.028Z,101498.80
2023-05-21T23:02:01.662Z,101502.30
2023-05-21T23:04:49.422Z,101502.41
2023-05-21T23:07:36.374Z,101501.36
2023-05-21T23:10:23.083Z,101500.97
2023-05-21T23:13:09.566Z,101503.35
2023-05-21T23:15:58.880Z,101501.29
2023-05-21T23:18:45.556Z,101502.00
2023-05-21T23:21:32.196Z,101500.57
2023-05-21T23:24:18.840Z,101505.66
2023-05-21T23:27:05.520Z,101500.20
2023-05-21T23:29:52.200Z,101507.55
2023-05-21T23:32:38.745Z,101509.46
2023-05-21T23:35:25.347Z,101507.44
2023-05-21T23:38:12.079Z,101501.59
2023-05-21T23:40:58.678Z,101508.98
2023-05-21T23:43:44.991Z,101508.86
2023-05-21T23:46:31.553Z,101505.31
2023-05-21T23:49:17.754Z,101507.39
2023-05-21T23:52:05.783Z,101504.00
2023-05-21T23:54:52.328Z,101497.29
2023-05-21T23:57:39.120Z,101502.27
